Check out our new PWSWeather beta!
PWSweather.com
Personal Weather Stations
Station Observations

SkegnessGB

Lat: 53.147585, Lon: 0.345774

Elevation: 18

Station Type: Fine Offset WH3080

http://www.skegnessweather.info/

High Low Average
Temperature 45.0°F7.2°C 32.0°F0.0°C 39.2°F4.0°C
Dew Point 42.2°F5.7°C 28.3°F-2.1°C 35.9°F2.2°C
Winds 22.1 mph 35.6 kmh 1.8 mph 2.9 kmh 11.0 mph S17.7 kmh S
Wind Gusts 23.4 mph37.7 kmh 2.5 mph4.0 kmh 12.0 mph19.3 kmh
Humidity 92% 82% 88%
Pressure 29.50 in999.0 mb 28.61 in968.8 mb -
Precipitation 0.32 in8.1 mm - -
Hour Temp Dew Point Humidity Winds Wind Gusts Pressure Precip Precip Rate Daily Precip Total
12:00 AM 33.4°F0.8°C 29.7°F-1.3°C 86% 5.1 mph SSE8.2 kmh SSE 5.9 mph9.5 kmh 29.50 in999.0 mb 0.00 in0.0 mm 0.00 in0.0 mm 0.00 in0.0 mm
12:10 AM 33.4°F0.8°C 29.7°F-1.3°C 86% 5.1 mph SW8.2 kmh SW 4.9 mph7.9 kmh 29.49 in998.6 mb 0.00 in0.0 mm 0.00 in0.0 mm 0.00 in0.0 mm
12:20 AM 33.3°F0.7°C 29.5°F-1.4°C 86% 4.1 mph WSW6.6 kmh WSW 4.2 mph6.8 kmh 29.49 in998.6 mb 0.00 in0.0 mm 0.00 in0.0 mm 0.00 in0.0 mm
12:30 AM 33.3°F0.7°C 29.5°F-1.4°C 86% 4.5 mph SSW7.2 kmh SSW 5.9 mph9.5 kmh 29.49 in998.6 mb 0.00 in0.0 mm 0.00 in0.0 mm 0.00 in0.0 mm
12:40 AM 33.3°F0.7°C 29.5°F-1.4°C 86% 4.3 mph SW6.9 kmh SW 4.9 mph7.9 kmh 29.49 in998.6 mb 0.00 in0.0 mm 0.00 in0.0 mm 0.00 in0.0 mm
12:50 AM 33.1°F0.6°C 29.3°F-1.5°C 86% 5.8 mph SW9.3 kmh SW 5.9 mph9.5 kmh 29.49 in998.6 mb 0.00 in0.0 mm 0.00 in0.0 mm 0.00 in0.0 mm
01:00 AM 33.3°F0.7°C 29.5°F-1.4°C 86% 5.1 mph S8.2 kmh S 5.9 mph9.5 kmh 29.49 in998.6 mb 0.00 in0.0 mm 0.00 in0.0 mm 0.00 in0.0 mm
01:10 AM 33.3°F0.7°C 29.5°F-1.4°C 86% 5.5 mph S8.9 kmh S 4.9 mph7.9 kmh 29.49 in998.6 mb 0.00 in0.0 mm 0.00 in0.0 mm 0.00 in0.0 mm
01:20 AM 33.1°F0.6°C 29.3°F-1.5°C 86% 3.8 mph WSW6.1 kmh WSW 4.9 mph7.9 kmh 29.48 in998.3 mb 0.00 in0.0 mm 0.00 in0.0 mm 0.00 in0.0 mm
01:30 AM 33.1°F0.6°C 29.3°F-1.5°C 86% 3.9 mph WSW6.3 kmh WSW 4.2 mph6.8 kmh 29.49 in998.6 mb 0.00 in0.0 mm 0.00 in0.0 mm 0.00 in0.0 mm
01:40 AM 32.9°F0.5°C 29.2°F-1.6°C 86% 3.5 mph SW5.6 kmh SW 3.4 mph5.5 kmh 29.48 in998.3 mb 0.00 in0.0 mm 0.00 in0.0 mm 0.00 in0.0 mm
01:50 AM 32.7°F0.4°C 29.0°F-1.7°C 86% 2.3 mph S3.7 kmh S 3.4 mph5.5 kmh 29.49 in998.6 mb 0.00 in0.0 mm 0.00 in0.0 mm 0.00 in0.0 mm
02:00 AM 32.5°F0.3°C 28.8°F-1.8°C 86% 1.8 mph SSW2.9 kmh SSW 3.4 mph5.5 kmh 29.48 in998.3 mb 0.00 in0.0 mm 0.00 in0.0 mm 0.00 in0.0 mm
02:10 AM 32.5°F0.3°C 28.8°F-1.8°C 86% 3.2 mph SW5.1 kmh SW 3.4 mph5.5 kmh 29.48 in998.3 mb 0.00 in0.0 mm 0.00 in0.0 mm 0.00 in0.0 mm
02:20 AM 32.4°F0.2°C 28.6°F-1.9°C 86% 2.0 mph SW3.2 kmh SW 2.5 mph4.0 kmh 29.48 in998.3 mb 0.00 in0.0 mm 0.00 in0.0 mm 0.00 in0.0 mm
02:30 AM 32.2°F0.1°C 28.5°F-1.9°C 86% 2.3 mph SSW3.7 kmh SSW 2.5 mph4.0 kmh 29.47 in998.0 mb 0.00 in0.0 mm 0.00 in0.0 mm 0.00 in0.0 mm
02:40 AM 32.2°F0.1°C 28.5°F-1.9°C 86% 2.1 mph SSW3.4 kmh SSW 3.4 mph5.5 kmh 29.47 in998.0 mb 0.00 in0.0 mm 0.00 in0.0 mm 0.00 in0.0 mm
02:50 AM 32.0°F0.0°C 28.3°F-2.1°C 86% 2.3 mph SW3.7 kmh SW 3.4 mph5.5 kmh 29.46 in997.6 mb 0.00 in0.0 mm 0.00 in0.0 mm 0.00 in0.0 mm
03:00 AM 32.0°F0.0°C 28.3°F-2.1°C 86% 3.5 mph SSW5.6 kmh SSW 4.2 mph6.8 kmh 29.46 in997.6 mb 0.00 in0.0 mm 0.00 in0.0 mm 0.00 in0.0 mm
03:10 AM 32.0°F0.0°C 28.3°F-2.1°C 86% 3.5 mph WSW5.6 kmh WSW 4.9 mph7.9 kmh 29.45 in997.3 mb 0.00 in0.0 mm 0.00 in0.0 mm 0.00 in0.0 mm
03:20 AM 32.2°F0.1°C 28.5°F-1.9°C 86% 5.0 mph SSW8.0 kmh SSW 4.9 mph7.9 kmh 29.46 in997.6 mb 0.00 in0.0 mm 0.00 in0.0 mm 0.00 in0.0 mm
03:30 AM 32.4°F0.2°C 28.6°F-1.9°C 86% 4.6 mph SSW7.4 kmh SSW 6.6 mph10.6 kmh 29.45 in997.3 mb 0.00 in0.0 mm 0.00 in0.0 mm 0.00 in0.0 mm
03:40 AM 32.2°F0.1°C 28.5°F-1.9°C 86% 4.3 mph SW6.9 kmh SW 6.6 mph10.6 kmh 29.45 in997.3 mb 0.00 in0.0 mm 0.00 in0.0 mm 0.00 in0.0 mm
03:50 AM 32.0°F0.0°C 28.3°F-2.1°C 86% 3.5 mph SW5.6 kmh SW 4.2 mph6.8 kmh 29.45 in997.3 mb 0.00 in0.0 mm 0.00 in0.0 mm 0.00 in0.0 mm
04:00 AM 32.4°F0.2°C 28.6°F-1.9°C 86% 4.8 mph SSW7.7 kmh SSW 4.9 mph7.9 kmh 29.44 in997.0 mb 0.00 in0.0 mm 0.00 in0.0 mm 0.00 in0.0 mm
04:10 AM 32.5°F0.3°C 28.8°F-1.8°C 86% 5.0 mph S8.0 kmh S 5.9 mph9.5 kmh 29.43 in996.6 mb 0.00 in0.0 mm 0.00 in0.0 mm 0.00 in0.0 mm
04:20 AM 32.9°F0.5°C 29.2°F-1.6°C 86% 5.2 mph S8.4 kmh S 7.6 mph12.2 kmh 29.43 in996.6 mb 0.00 in0.0 mm 0.00 in0.0 mm 0.00 in0.0 mm
04:30 AM 32.9°F0.5°C 29.5°F-1.4°C 87% 6.4 mph SW10.3 kmh SW 8.4 mph13.5 kmh 29.42 in996.3 mb 0.00 in0.0 mm 0.00 in0.0 mm 0.00 in0.0 mm
04:40 AM 32.7°F0.4°C 29.0°F-1.7°C 86% 4.8 mph SE7.7 kmh SE 5.9 mph9.5 kmh 29.42 in996.3 mb 0.00 in0.0 mm 0.00 in0.0 mm 0.00 in0.0 mm
04:50 AM 32.7°F0.4°C 29.0°F-1.7°C 86% 4.5 mph S7.2 kmh S 9.1 mph14.6 kmh 29.41 in995.9 mb 0.00 in0.0 mm 0.00 in0.0 mm 0.00 in0.0 mm
05:00 AM 32.9°F0.5°C 29.5°F-1.4°C 87% 4.7 mph S7.6 kmh S 5.9 mph9.5 kmh 29.41 in995.9 mb 0.00 in0.0 mm 0.00 in0.0 mm 0.00 in0.0 mm
05:10 AM 33.3°F0.7°C 29.8°F-1.2°C 87% 6.1 mph SSE9.8 kmh SSE 5.9 mph9.5 kmh 29.41 in995.9 mb 0.00 in0.0 mm 0.00 in0.0 mm 0.00 in0.0 mm
05:20 AM 33.6°F0.9°C 30.2°F-1.0°C 87% 7.1 mph SSW11.4 kmh SSW 7.6 mph12.2 kmh 29.40 in995.6 mb 0.00 in0.0 mm 0.00 in0.0 mm 0.00 in0.0 mm
05:30 AM 34.0°F1.1°C 30.5°F-0.8°C 87% 7.9 mph ESE12.7 kmh ESE 8.4 mph13.5 kmh 29.39 in995.3 mb 0.00 in0.0 mm 0.00 in0.0 mm 0.00 in0.0 mm
05:40 AM 34.0°F1.1°C 30.5°F-0.8°C 87% 7.3 mph SSE11.7 kmh SSE 9.1 mph14.6 kmh 29.39 in995.3 mb 0.00 in0.0 mm 0.00 in0.0 mm 0.00 in0.0 mm
05:50 AM 34.2°F1.2°C 30.7°F-0.7°C 87% 7.8 mph S12.6 kmh S 9.1 mph14.6 kmh 29.39 in995.3 mb 0.00 in0.0 mm 0.00 in0.0 mm 0.00 in0.0 mm
06:00 AM 34.3°F1.3°C 30.9°F-0.6°C 87% 8.0 mph S12.9 kmh S 10.1 mph16.3 kmh 29.38 in994.9 mb 0.00 in0.0 mm 0.00 in0.0 mm 0.00 in0.0 mm
06:10 AM 34.7°F1.5°C 31.5°F-0.3°C 88% 9.5 mph SSW15.3 kmh SSW 11.8 mph19.0 kmh 29.38 in994.9 mb 0.00 in0.0 mm 0.00 in0.0 mm 0.00 in0.0 mm
06:20 AM 34.7°F1.5°C 31.5°F-0.3°C 88% 9.2 mph S14.8 kmh S 9.1 mph14.6 kmh 29.38 in994.9 mb 0.00 in0.0 mm 0.00 in0.0 mm 0.00 in0.0 mm
06:30 AM 35.1°F1.7°C 31.9°F-0.1°C 88% 10.9 mph S17.5 kmh S 11.8 mph19.0 kmh 29.38 in994.9 mb 0.00 in0.0 mm 0.00 in0.0 mm 0.00 in0.0 mm
06:40 AM 35.1°F1.7°C 31.9°F-0.1°C 88% 9.1 mph SSE14.6 kmh SSE 9.1 mph14.6 kmh 29.37 in994.6 mb 0.00 in0.0 mm 0.00 in0.0 mm 0.00 in0.0 mm
06:50 AM 35.2°F1.8°C 32.0°F0.0°C 88% 10.1 mph S16.3 kmh S 10.8 mph17.4 kmh 29.36 in994.2 mb 0.00 in0.0 mm 0.00 in0.0 mm 0.00 in0.0 mm
07:00 AM 35.4°F1.9°C 32.2°F0.1°C 88% 10.9 mph SW17.5 kmh SW 11.8 mph19.0 kmh 29.36 in994.2 mb 0.00 in0.0 mm 0.00 in0.0 mm 0.00 in0.0 mm
07:10 AM 35.4°F1.9°C 32.2°F0.1°C 88% 12.6 mph WNW20.3 kmh WNW 10.8 mph17.4 kmh 29.36 in994.2 mb 0.00 in0.0 mm 0.00 in0.0 mm 0.00 in0.0 mm
07:20 AM 35.6°F2.0°C 32.4°F0.2°C 88% 10.0 mph SSE16.1 kmh SSE 10.8 mph17.4 kmh 29.35 in993.9 mb 0.00 in0.0 mm 0.00 in0.0 mm 0.00 in0.0 mm
07:30 AM 35.6°F2.0°C 32.4°F0.2°C 88% 9.3 mph S15.0 kmh S 9.1 mph14.6 kmh 29.34 in993.6 mb 0.00 in0.0 mm 0.00 in0.0 mm 0.00 in0.0 mm
07:40 AM 35.8°F2.1°C 32.3°F0.2°C 87% 13.0 mph SSW20.9 kmh SSW 11.8 mph19.0 kmh 29.34 in993.6 mb 0.00 in0.0 mm 0.00 in0.0 mm 0.00 in0.0 mm
07:50 AM 36.1°F2.3°C 32.6°F0.3°C 87% 12.2 mph S19.6 kmh S 11.8 mph19.0 kmh 29.33 in993.2 mb 0.00 in0.0 mm 0.00 in0.0 mm 0.00 in0.0 mm
08:00 AM 36.3°F2.4°C 32.8°F0.4°C 87% 12.4 mph S20.0 kmh S 13.3 mph21.4 kmh 29.33 in993.2 mb 0.00 in0.0 mm 0.00 in0.0 mm 0.00 in0.0 mm
08:10 AM 36.3°F2.4°C 32.8°F0.4°C 87% 12.6 mph S20.3 kmh S 12.5 mph20.1 kmh 29.32 in992.9 mb 0.00 in0.0 mm 0.00 in0.0 mm 0.00 in0.0 mm
08:20 AM 36.5°F2.5°C 33.0°F0.6°C 87% 9.6 mph S15.4 kmh S 10.1 mph16.3 kmh 29.31 in992.6 mb 0.00 in0.0 mm 0.00 in0.0 mm 0.00 in0.0 mm
08:30 AM 36.7°F2.6°C 33.2°F0.7°C 87% 11.6 mph SE18.7 kmh SE 12.5 mph20.1 kmh 29.31 in992.6 mb 0.00 in0.0 mm 0.00 in0.0 mm 0.00 in0.0 mm
08:40 AM 37.0°F2.8°C 33.5°F0.8°C 87% 13.3 mph S21.4 kmh S 13.3 mph21.4 kmh 29.30 in992.2 mb 0.00 in0.0 mm 0.00 in0.0 mm 0.00 in0.0 mm
08:50 AM 37.0°F2.8°C 33.5°F0.8°C 87% 15.3 mph SSE24.6 kmh SSE 16.7 mph26.9 kmh 29.29 in991.9 mb 0.00 in0.0 mm 0.00 in0.0 mm 0.00 in0.0 mm
09:00 AM 37.0°F2.8°C 33.2°F0.7°C 86% 15.7 mph SE25.3 kmh SE 15.0 mph24.1 kmh 29.29 in991.9 mb 0.00 in0.0 mm 0.00 in0.0 mm 0.00 in0.0 mm
09:10 AM 37.4°F3.0°C 33.6°F0.9°C 86% 15.8 mph SE25.4 kmh SE 15.0 mph24.1 kmh 29.28 in991.5 mb 0.00 in0.0 mm 0.00 in0.0 mm 0.00 in0.0 mm
09:20 AM 37.6°F3.1°C 33.5°F0.8°C 85% 14.2 mph SSE22.9 kmh SSE 15.0 mph24.1 kmh 29.28 in991.5 mb 0.00 in0.0 mm 0.00 in0.0 mm 0.00 in0.0 mm
09:30 AM 37.8°F3.2°C 33.4°F0.8°C 84% 15.7 mph SW25.3 kmh SW 16.7 mph26.9 kmh 29.27 in991.2 mb 0.00 in0.0 mm 0.00 in0.0 mm 0.00 in0.0 mm
09:40 AM 38.1°F3.4°C 33.7°F0.9°C 84% 15.9 mph SSE25.6 kmh SSE 15.0 mph24.1 kmh 29.27 in991.2 mb 0.00 in0.0 mm 0.00 in0.0 mm 0.00 in0.0 mm
09:50 AM 38.3°F3.5°C 33.9°F1.1°C 84% 16.3 mph S26.2 kmh S 16.7 mph26.9 kmh 29.26 in990.9 mb 0.00 in0.0 mm 0.00 in0.0 mm 0.00 in0.0 mm
10:00 AM 38.3°F3.5°C 33.6°F0.9°C 83% 15.8 mph S25.4 kmh S 15.0 mph24.1 kmh 29.24 in990.2 mb 0.00 in0.0 mm 0.00 in0.0 mm 0.00 in0.0 mm
10:10 AM 38.7°F3.7°C 33.9°F1.1°C 83% 14.7 mph SSE23.7 kmh SSE 13.3 mph21.4 kmh 29.24 in990.2 mb 0.00 in0.0 mm 0.00 in0.0 mm 0.00 in0.0 mm
10:20 AM 38.8°F3.8°C 34.1°F1.2°C 83% 15.0 mph SSE24.1 kmh SSE 16.7 mph26.9 kmh 29.23 in989.8 mb 0.00 in0.0 mm 0.00 in0.0 mm 0.00 in0.0 mm
10:30 AM 39.2°F4.0°C 34.2°F1.2°C 82% 16.3 mph SSE26.2 kmh SSE 19.2 mph30.9 kmh 29.22 in989.5 mb 0.00 in0.0 mm 0.00 in0.0 mm 0.00 in0.0 mm
10:40 AM 39.4°F4.1°C 34.3°F1.3°C 82% 15.7 mph SSE25.3 kmh SSE 15.0 mph24.1 kmh 29.21 in989.2 mb 0.00 in0.0 mm 0.00 in0.0 mm 0.00 in0.0 mm
10:50 AM 39.6°F4.2°C 34.5°F1.4°C 82% 15.9 mph S25.6 kmh S 14.3 mph23.0 kmh 29.20 in988.8 mb 0.00 in0.0 mm 0.00 in0.0 mm 0.00 in0.0 mm
11:00 AM 39.6°F4.2°C 34.5°F1.4°C 82% 15.5 mph S24.9 kmh S 16.7 mph26.9 kmh 29.20 in988.8 mb 0.00 in0.0 mm 0.00 in0.0 mm 0.00 in0.0 mm
11:10 AM 39.7°F4.3°C 34.7°F1.5°C 82% 15.2 mph SE24.5 kmh SE 13.3 mph21.4 kmh 29.18 in988.1 mb 0.00 in0.0 mm 0.00 in0.0 mm 0.00 in0.0 mm
11:20 AM 39.7°F4.3°C 35.0°F1.7°C 83% 15.3 mph S24.6 kmh S 16.7 mph26.9 kmh 29.17 in987.8 mb 0.00 in0.0 mm 0.00 in0.0 mm 0.00 in0.0 mm
11:30 AM 39.9°F4.4°C 35.2°F1.8°C 83% 12.8 mph S20.6 kmh S 13.3 mph21.4 kmh 29.16 in987.5 mb 0.01 in0.3 mm 0.06 in1.5 mm 0.01 in0.3 mm
11:40 AM 40.3°F4.6°C 35.8°F2.1°C 84% 14.5 mph SSE23.3 kmh SSE 17.5 mph28.2 kmh 29.15 in987.1 mb 0.01 in0.3 mm 0.00 in0.0 mm 0.01 in0.3 mm
11:50 AM 40.6°F4.8°C 36.2°F2.3°C 84% 8.3 mph S13.4 kmh S 15.0 mph24.1 kmh 29.13 in986.5 mb 0.01 in0.3 mm 0.00 in0.0 mm 0.01 in0.3 mm
12:00 PM 41.0°F5.0°C 36.8°F2.7°C 85% 11.5 mph S18.5 kmh S 15.0 mph24.1 kmh 29.12 in986.1 mb 0.01 in0.3 mm 0.00 in0.0 mm 0.01 in0.3 mm
12:10 PM 41.2°F5.1°C 37.0°F2.8°C 85% 12.1 mph SE19.5 kmh SE 16.7 mph26.9 kmh 29.11 in985.8 mb 0.01 in0.3 mm 0.00 in0.0 mm 0.01 in0.3 mm
12:20 PM 41.4°F5.2°C 37.2°F2.9°C 85% 12.8 mph SW20.6 kmh SW 12.5 mph20.1 kmh 29.09 in985.1 mb 0.01 in0.3 mm 0.00 in0.0 mm 0.01 in0.3 mm
12:30 PM 41.5°F5.3°C 37.7°F3.2°C 86% 13.5 mph S21.7 kmh S 16.0 mph25.7 kmh 29.08 in984.8 mb 0.00 in0.0 mm 0.00 in0.0 mm 0.01 in0.3 mm
12:40 PM 41.5°F5.3°C 37.7°F3.2°C 86% 12.3 mph S19.8 kmh S 14.3 mph23.0 kmh 29.07 in984.4 mb 0.00 in0.0 mm 0.00 in0.0 mm 0.01 in0.3 mm
12:50 PM 41.5°F5.3°C 37.7°F3.2°C 86% 11.9 mph S19.2 kmh S 15.0 mph24.1 kmh 29.05 in983.7 mb 0.00 in0.0 mm 0.00 in0.0 mm 0.01 in0.3 mm
01:00 PM 41.7°F5.4°C 37.8°F3.2°C 86% 12.5 mph SSW20.1 kmh SSW 15.0 mph24.1 kmh 29.04 in983.4 mb 0.01 in0.3 mm 0.01 in0.3 mm 0.02 in0.5 mm
01:10 PM 41.7°F5.4°C 37.8°F3.2°C 86% 11.2 mph SSE18.0 kmh SSE 16.0 mph25.7 kmh 29.03 in983.1 mb 0.02 in0.5 mm 0.06 in1.5 mm 0.04 in1.0 mm
01:20 PM 41.7°F5.4°C 38.1°F3.4°C 87% 12.2 mph S19.6 kmh S 14.3 mph23.0 kmh 29.01 in982.4 mb 0.05 in1.3 mm 0.18 in4.6 mm 0.06 in1.5 mm
01:30 PM 41.9°F5.5°C 38.3°F3.5°C 87% 10.5 mph SSE16.9 kmh SSE 17.5 mph28.2 kmh 29.00 in982.1 mb 0.06 in1.5 mm 0.06 in1.5 mm 0.07 in1.8 mm
01:40 PM 42.1°F5.6°C 38.8°F3.8°C 88% 8.8 mph SSE14.2 kmh SSE 16.0 mph25.7 kmh 28.99 in981.7 mb 0.06 in1.5 mm 0.00 in0.0 mm 0.07 in1.8 mm
01:50 PM 42.3°F5.7°C 39.0°F3.9°C 88% 12.1 mph SE19.5 kmh SE 13.3 mph21.4 kmh 28.98 in981.4 mb 0.06 in1.5 mm 0.00 in0.0 mm 0.07 in1.8 mm
02:00 PM 42.4°F5.8°C 39.4°F4.1°C 89% 13.0 mph SSE20.9 kmh SSE 16.7 mph26.9 kmh 28.98 in981.4 mb 0.05 in1.3 mm 0.00 in0.0 mm 0.07 in1.8 mm
02:10 PM 42.6°F5.9°C 39.6°F4.2°C 89% 17.8 mph S28.6 kmh S 16.0 mph25.7 kmh 28.96 in980.7 mb 0.04 in1.0 mm 0.00 in0.0 mm 0.08 in2.0 mm
02:20 PM 42.6°F5.9°C 39.6°F4.2°C 89% 14.8 mph SSE23.8 kmh SSE 16.0 mph25.7 kmh 28.95 in980.4 mb 0.04 in1.0 mm 0.00 in0.0 mm 0.09 in2.3 mm
02:30 PM 42.8°F6.0°C 40.1°F4.5°C 90% 17.1 mph SSW27.5 kmh SSW 18.5 mph29.8 kmh 28.95 in980.4 mb 0.04 in1.0 mm 0.00 in0.0 mm 0.11 in2.8 mm
02:40 PM 43.0°F6.1°C 40.2°F4.6°C 90% 15.1 mph SSE24.3 kmh SSE 21.7 mph34.9 kmh 28.94 in980.0 mb 0.04 in1.0 mm 0.00 in0.0 mm 0.11 in2.8 mm
02:50 PM 43.2°F6.2°C 40.4°F4.7°C 90% 15.4 mph SSE24.8 kmh SSE 16.0 mph25.7 kmh 28.93 in979.7 mb 0.05 in1.3 mm 0.06 in1.5 mm 0.12 in3.0 mm
03:00 PM 43.2°F6.2°C 40.4°F4.7°C 90% 14.8 mph ESE23.8 kmh ESE 15.0 mph24.1 kmh 28.92 in979.3 mb 0.06 in1.5 mm 0.01 in0.3 mm 0.13 in3.3 mm
03:10 PM 43.3°F6.3°C 40.6°F4.8°C 90% 11.7 mph NW18.8 kmh NW 15.0 mph24.1 kmh 28.91 in979.0 mb 0.05 in1.3 mm 0.00 in0.0 mm 0.13 in3.3 mm
03:20 PM 43.3°F6.3°C 40.6°F4.8°C 90% 12.8 mph SSE20.6 kmh SSE 17.5 mph28.2 kmh 28.90 in978.7 mb 0.04 in1.0 mm 0.00 in0.0 mm 0.13 in3.3 mm
03:30 PM 43.5°F6.4°C 40.8°F4.9°C 90% 18.5 mph S29.8 kmh S 17.5 mph28.2 kmh 28.89 in978.3 mb 0.04 in1.0 mm 0.00 in0.0 mm 0.14 in3.6 mm
03:40 PM 43.7°F6.5°C 41.2°F5.1°C 91% 18.6 mph SSE29.9 kmh SSE 17.5 mph28.2 kmh 28.89 in978.3 mb 0.04 in1.0 mm 0.00 in0.0 mm 0.14 in3.6 mm
03:50 PM 43.7°F6.5°C 41.2°F5.1°C 91% 14.2 mph SSE22.9 kmh SSE 14.3 mph23.0 kmh 28.88 in978.0 mb 0.04 in1.0 mm 0.00 in0.0 mm 0.15 in3.8 mm
04:00 PM 43.7°F6.5°C 41.2°F5.1°C 91% 13.5 mph SE21.7 kmh SE 16.7 mph26.9 kmh 28.88 in978.0 mb 0.02 in0.5 mm 0.00 in0.0 mm 0.15 in3.8 mm
04:10 PM 43.9°F6.6°C 41.4°F5.2°C 91% 15.1 mph S24.3 kmh S 14.3 mph23.0 kmh 28.87 in977.7 mb 0.04 in1.0 mm 0.12 in3.0 mm 0.17 in4.3 mm
04:20 PM 44.1°F6.7°C 41.6°F5.3°C 91% 15.0 mph SSE24.1 kmh SSE 14.3 mph23.0 kmh 28.85 in977.0 mb 0.04 in1.0 mm 0.00 in0.0 mm 0.17 in4.3 mm
04:30 PM 44.4°F6.9°C 42.0°F5.6°C 91% 18.0 mph S29.0 kmh S 16.7 mph26.9 kmh 28.85 in977.0 mb 0.02 in0.5 mm 0.00 in0.0 mm 0.17 in4.3 mm
04:40 PM 44.4°F6.9°C 42.0°F5.6°C 91% 19.6 mph S31.5 kmh S 19.2 mph30.9 kmh 28.84 in976.6 mb 0.04 in1.0 mm 0.12 in3.0 mm 0.18 in4.6 mm
04:50 PM 44.6°F7.0°C 41.0°F5.0°C 87% 15.5 mph SE24.9 kmh SE 16.0 mph25.7 kmh 28.83 in976.3 mb 0.04 in1.0 mm 0.00 in0.0 mm 0.19 in4.8 mm
05:00 PM 44.6°F7.0°C 41.0°F5.0°C 87% 21.0 mph S33.8 kmh S 20.2 mph32.5 kmh 28.82 in976.0 mb 0.04 in1.0 mm 0.00 in0.0 mm 0.19 in4.8 mm
05:10 PM 44.8°F7.1°C 41.1°F5.1°C 87% 17.1 mph S27.5 kmh S 23.4 mph37.7 kmh 28.82 in976.0 mb 0.04 in1.0 mm 0.00 in0.0 mm 0.20 in5.1 mm
05:20 PM 44.8°F7.1°C 41.1°F5.1°C 87% 15.5 mph S24.9 kmh S 16.7 mph26.9 kmh 28.81 in975.6 mb 0.04 in1.0 mm 0.00 in0.0 mm 0.20 in5.1 mm
05:30 PM 44.8°F7.1°C 41.4°F5.2°C 88% 20.3 mph S32.7 kmh S 20.2 mph32.5 kmh 28.80 in975.3 mb 0.05 in1.3 mm 0.06 in1.5 mm 0.21 in5.3 mm
05:40 PM 45.0°F7.2°C 41.6°F5.3°C 88% 21.6 mph SE34.8 kmh SE 21.7 mph34.9 kmh 28.80 in975.3 mb 0.05 in1.3 mm 0.00 in0.0 mm 0.22 in5.6 mm
05:50 PM 45.0°F7.2°C 41.6°F5.3°C 88% 22.1 mph S35.6 kmh S 23.4 mph37.7 kmh 28.78 in974.6 mb 0.04 in1.0 mm 0.00 in0.0 mm 0.22 in5.6 mm
06:00 PM 45.0°F7.2°C 41.6°F5.3°C 88% 19.4 mph SSE31.2 kmh SSE 17.5 mph28.2 kmh 28.78 in974.6 mb 0.04 in1.0 mm 0.00 in0.0 mm 0.22 in5.6 mm
06:10 PM 44.8°F7.1°C 41.4°F5.2°C 88% 17.6 mph S28.3 kmh S 21.7 mph34.9 kmh 28.77 in974.3 mb 0.04 in1.0 mm 0.00 in0.0 mm 0.24 in6.1 mm
06:20 PM 44.8°F7.1°C 41.1°F5.1°C 87% 17.4 mph SE28.0 kmh SE 21.7 mph34.9 kmh 28.76 in973.9 mb 0.04 in1.0 mm 0.00 in0.0 mm 0.24 in6.1 mm
06:30 PM 44.6°F7.0°C 41.0°F5.0°C 87% 16.9 mph SE27.2 kmh SE 21.7 mph34.9 kmh 28.75 in973.6 mb 0.02 in0.5 mm 0.00 in0.0 mm 0.24 in6.1 mm
06:40 PM 44.6°F7.0°C 41.0°F5.0°C 87% 19.1 mph S30.7 kmh S 18.5 mph29.8 kmh 28.75 in973.6 mb 0.02 in0.5 mm 0.00 in0.0 mm 0.25 in6.4 mm
06:50 PM 44.6°F7.0°C 41.0°F5.0°C 87% 18.1 mph SSE29.1 kmh SSE 22.6 mph36.4 kmh 28.74 in973.2 mb 0.04 in1.0 mm 0.12 in3.0 mm 0.26 in6.6 mm
07:00 PM 44.4°F6.9°C 42.2°F5.7°C 92% 19.2 mph SE30.9 kmh SE 20.9 mph33.6 kmh 28.74 in973.2 mb 0.05 in1.3 mm 0.01 in0.3 mm 0.27 in6.9 mm
07:10 PM 44.4°F6.9°C 42.2°F5.7°C 92% 19.8 mph S31.9 kmh S 17.5 mph28.2 kmh 28.73 in972.9 mb 0.05 in1.3 mm 0.00 in0.0 mm 0.28 in7.1 mm
07:20 PM 44.4°F6.9°C 42.2°F5.7°C 92% 16.9 mph S27.2 kmh S 17.5 mph28.2 kmh 28.72 in972.6 mb 0.05 in1.3 mm 0.00 in0.0 mm 0.28 in7.1 mm
07:30 PM 44.4°F6.9°C 42.2°F5.7°C 92% 15.4 mph S24.8 kmh S 18.5 mph29.8 kmh 28.71 in972.2 mb 0.06 in1.5 mm 0.06 in1.5 mm 0.30 in7.6 mm
07:40 PM 44.4°F6.9°C 42.2°F5.7°C 92% 18.1 mph S29.1 kmh S 18.5 mph29.8 kmh 28.71 in972.2 mb 0.06 in1.5 mm 0.00 in0.0 mm 0.31 in7.9 mm
07:50 PM 44.2°F6.8°C 42.1°F5.6°C 92% 18.3 mph SSE29.5 kmh SSE 16.0 mph25.7 kmh 28.70 in971.9 mb 0.05 in1.3 mm 0.00 in0.0 mm 0.31 in7.9 mm
08:00 PM 44.2°F6.8°C 42.1°F5.6°C 92% 19.5 mph S31.4 kmh S 19.2 mph30.9 kmh 28.70 in971.9 mb 0.04 in1.0 mm 0.00 in0.0 mm 0.31 in7.9 mm
08:10 PM 44.2°F6.8°C 42.1°F5.6°C 92% 18.8 mph SSE30.3 kmh SSE 18.5 mph29.8 kmh 28.69 in971.6 mb 0.02 in0.5 mm 0.00 in0.0 mm 0.31 in7.9 mm
08:20 PM 44.2°F6.8°C 42.1°F5.6°C 92% 14.0 mph S22.5 kmh S 13.3 mph21.4 kmh 28.69 in971.6 mb 0.02 in0.5 mm 0.00 in0.0 mm 0.31 in7.9 mm
08:30 PM 44.2°F6.8°C 42.1°F5.6°C 92% 11.6 mph SSW18.7 kmh SSW 15.0 mph24.1 kmh 28.69 in971.6 mb 0.02 in0.5 mm 0.00 in0.0 mm 0.32 in8.1 mm
08:40 PM 44.2°F6.8°C 42.1°F5.6°C 92% 9.1 mph SSW14.6 kmh SSW 10.8 mph17.4 kmh 28.68 in971.2 mb 0.01 in0.3 mm 0.00 in0.0 mm 0.32 in8.1 mm
08:50 PM 44.2°F6.8°C 42.1°F5.6°C 92% 5.4 mph S8.7 kmh S 8.4 mph13.5 kmh 28.68 in971.2 mb 0.01 in0.3 mm 0.00 in0.0 mm 0.32 in8.1 mm
09:00 PM 44.1°F6.7°C 41.9°F5.5°C 92% 6.9 mph W11.1 kmh W 6.6 mph10.6 kmh 28.68 in971.2 mb 0.01 in0.3 mm 0.00 in0.0 mm 0.32 in8.1 mm
09:10 PM 43.9°F6.6°C 41.7°F5.4°C 92% 6.3 mph E10.1 kmh E 5.9 mph9.5 kmh 28.67 in970.9 mb 0.01 in0.3 mm 0.00 in0.0 mm 0.32 in8.1 mm
09:20 PM 43.9°F6.6°C 41.7°F5.4°C 92% 4.5 mph SW7.2 kmh SW 4.9 mph7.9 kmh 28.66 in970.5 mb 0.01 in0.3 mm 0.00 in0.0 mm 0.32 in8.1 mm
09:30 PM 43.7°F6.5°C 41.5°F5.3°C 92% 3.8 mph SSW6.1 kmh SSW 4.9 mph7.9 kmh 28.66 in970.5 mb 0.00 in0.0 mm 0.00 in0.0 mm 0.32 in8.1 mm
09:40 PM 43.7°F6.5°C 41.5°F5.3°C 92% 3.0 mph SW4.8 kmh SW 3.4 mph5.5 kmh 28.66 in970.5 mb 0.00 in0.0 mm 0.00 in0.0 mm 0.32 in8.1 mm
09:50 PM 43.5°F6.4°C 41.4°F5.2°C 92% 3.2 mph SSW5.1 kmh SSW 4.2 mph6.8 kmh 28.65 in970.2 mb 0.00 in0.0 mm 0.00 in0.0 mm 0.32 in8.1 mm
10:00 PM 43.3°F6.3°C 41.2°F5.1°C 92% 2.1 mph SSW3.4 kmh SSW 3.4 mph5.5 kmh 28.65 in970.2 mb 0.00 in0.0 mm 0.00 in0.0 mm 0.32 in8.1 mm
10:10 PM 43.3°F6.3°C 41.2°F5.1°C 92% 3.1 mph WSW5.0 kmh WSW 3.4 mph5.5 kmh 28.64 in969.9 mb 0.00 in0.0 mm 0.00 in0.0 mm 0.32 in8.1 mm
10:20 PM 43.2°F6.2°C 41.0°F5.0°C 92% 2.7 mph SSW4.3 kmh SSW 4.2 mph6.8 kmh 28.64 in969.9 mb 0.00 in0.0 mm 0.00 in0.0 mm 0.32 in8.1 mm
10:30 PM 42.8°F6.0°C 40.4°F4.7°C 91% 4.1 mph SW6.6 kmh SW 5.9 mph9.5 kmh 28.64 in969.9 mb 0.00 in0.0 mm 0.00 in0.0 mm 0.32 in8.1 mm
10:40 PM 42.4°F5.8°C 40.0°F4.4°C 91% 3.4 mph SE5.5 kmh SE 4.9 mph7.9 kmh 28.64 in969.9 mb 0.00 in0.0 mm 0.00 in0.0 mm 0.32 in8.1 mm
10:50 PM 42.3°F5.7°C 39.8°F4.3°C 91% 4.6 mph SW7.4 kmh SW 5.9 mph9.5 kmh 28.64 in969.9 mb 0.00 in0.0 mm 0.00 in0.0 mm 0.32 in8.1 mm
11:00 PM 41.9°F5.5°C 39.5°F4.2°C 91% 2.4 mph SW3.9 kmh SW 4.2 mph6.8 kmh 28.63 in969.5 mb 0.00 in0.0 mm 0.00 in0.0 mm 0.32 in8.1 mm
11:10 PM 41.7°F5.4°C 39.3°F4.1°C 91% 3.8 mph S6.1 kmh S 3.4 mph5.5 kmh 28.63 in969.5 mb 0.00 in0.0 mm 0.00 in0.0 mm 0.32 in8.1 mm
11:20 PM 41.7°F5.4°C 39.3°F4.1°C 91% 3.8 mph SW6.1 kmh SW 4.9 mph7.9 kmh 28.62 in969.2 mb 0.00 in0.0 mm 0.00 in0.0 mm 0.32 in8.1 mm
11:30 PM 41.9°F5.5°C 39.5°F4.2°C 91% 5.0 mph WSW8.0 kmh WSW 5.9 mph9.5 kmh 28.62 in969.2 mb 0.00 in0.0 mm 0.00 in0.0 mm 0.32 in8.1 mm
11:40 PM 42.3°F5.7°C 39.8°F4.3°C 91% 4.8 mph S7.7 kmh S 4.9 mph7.9 kmh 28.62 in969.2 mb 0.00 in0.0 mm 0.00 in0.0 mm 0.32 in8.1 mm
11:50 PM 42.3°F5.7°C 39.8°F4.3°C 91% 3.6 mph SSW5.8 kmh SSW 4.2 mph6.8 kmh 28.61 in968.8 mb 0.00 in0.0 mm 0.00 in0.0 mm 0.32 in8.1 mm